Printer, KY (41655)

12:59 AM EDT on October 21, 2014 (GMT -0400)
Quail Ridge | Change Station
CLOSE
Current Station
Personal Weather Station
Location: Pikeville, KY
Elevation: 778 ft
Nearby Weather Stations

Elev 778 ft 37.50 °N, 82.54 °W | Updated 1 second ago

Clear
Clear
50.3 °F
Feels Like 50.3 °F
N
0.0
Wind Variable Wind from East
Gusts 0.0 mph

Today
High -- | Low -- °F
--% Chance of Precip.
Yesterday
High -- | Low -- °F
Precip. -- in
7:44 AM 6:45 PM
Waning Crescent, 7% visible
Pressure 29.95 in
Visibility 10.0 miles
Clouds Scattered Clouds 11000 ft
Dew Point 50 °F
Humidity 98%
Rainfall 0.12 in
Snow Depth Not available.
UV 0 out of 12
Pollen 2.10 out of 12
Air Quality Not available.
Flu Activity Sporadic
METAR KSJS 210435Z AUTO 24005KT 10SM SCT110 13/09 A2995 RMK AO2 T01290090

More Conditions Fewer Conditions

Pressure 29.95 in
Visibility 10.0 miles
Clouds Scattered Clouds 11000 ft
Dew Point 50 °F
Humidity 98%
Rainfall 0.12 in
Snow Depth Not available.
UV 0 out of 12
Pollen 2.10 out of 12
Air Quality Not available.
Flu Activity Sporadic
METAR KSJS 210435Z AUTO 24005KT 10SM SCT110 13/09 A2995 RMK AO2 T01290090

More Conditions Fewer Conditions

10-Day Weather Forecast

Almanac

Astronomy

Oct. 21, 2014 Rise Set
Actual Time 7:44 AM EDT 6:45 PM EDT
Civil Twilight 7:18 AM EDT 7:12 PM EDT
Nautical Twilight 6:47 AM EDT 7:42 PM EDT
Astronomical Twilight 6:17 AM EDT 8:12 PM EDT
Moon 5:30 AM EDT 5:36 PM EDT
Length of Visible Light 11h 54m
Length of Day
11h 00m
Tomorrow will be 2m 15s shorter.
Waning Crescent, 7% of the Moon is Illuminated
Today
Waning Crescent
Oct 23
New
Oct 30
First Quarter
Nov 6
Full
Nov 14
Last Quarter

Today's Extremes

State Highs State Lows

Community

WunderPhotos

Upload Photos

1,763,610 photos uploaded!

Nearby

Snow Depth

Station Depth Elevation
No new snow has been reported.

Earthquake Activity

City Distance Mag. Time & Date
No recent earthquake activity has been reported nearby.
Minimum magnitude displayed is 2.5.

Coastal Water Temperatures

Place Temperature
No Stations Reporting

Nearby Weather Stations